Time;durP1;ratioP1;P1;durP2;ratioP2;P2;SDS_P1;SDS_P2;PMS_P1;PMS_P2;Temp;Humidity;BMP_temperature;BMP_pressure;BME280_temperature;BME280_humidity;BME280_pressure;Samples;Min_cycle;Max_cycle;Signal;HPM_P1;HPM_P2
2021/06/29 00:00:27;;;;;;;1.50;1.40;;;20.00;76.00;;;;;;5102526;27;20059;-66
2021/06/29 00:03:03;;;;;;;2.67;1.20;;;20.00;76.00;;;;;;5100185;27;20043;-65
2021/06/29 00:05:30;;;;;;;2.08;1.40;;;20.00;76.60;;;;;;5097265;27;20035;-66
2021/06/29 00:07:56;;;;;;;1.30;1.20;;;20.00;76.00;;;;;;5097670;27;20502;-66
2021/06/29 00:10:24;;;;;;;1.52;1.40;;;20.00;75.80;;;;;;5098352;27;20043;-66
2021/06/29 00:12:51;;;;;;;2.20;1.48;;;20.00;75.60;;;;;;5098861;27;20032;-65
2021/06/29 00:15:16;;;;;;;1.60;1.50;;;19.90;75.50;;;;;;5102872;27;20122;-65
2021/06/29 00:17:42;;;;;;;2.05;1.58;;;19.90;75.60;;;;;;5098801;27;20126;-65
2021/06/29 00:20:08;;;;;;;1.60;1.50;;;19.80;75.60;;;;;;5098522;27;20692;-65
2021/06/29 00:22:34;;;;;;;1.50;1.40;;;19.80;75.80;;;;;;5089071;27;20047;-65
2021/06/29 00:24:59;;;;;;;1.60;1.50;;;19.70;76.00;;;;;;5091008;27;20031;-64
2021/06/29 00:27:25;;;;;;;1.70;1.60;;;19.70;76.30;;;;;;5101274;27;20035;-65
2021/06/29 00:29:50;;;;;;;1.98;1.60;;;19.60;76.30;;;;;;5102524;27;20032;-66
2021/06/29 00:32:16;;;;;;;2.40;1.63;;;19.60;76.70;;;;;;5097603;27;20081;-64
2021/06/29 00:34:41;;;;;;;1.80;1.70;;;19.50;76.60;;;;;;5093110;27;20067;-65
2021/06/29 00:37:07;;;;;;;2.25;1.60;;;19.50;76.80;;;;;;5098518;27;20981;-65
2021/06/29 00:39:33;;;;;;;1.88;1.60;;;19.50;76.90;;;;;;5091280;27;20046;-65
2021/06/29 00:41:58;;;;;;;1.65;1.55;;;19.40;77.30;;;;;;5098793;27;20074;-64
2021/06/29 00:44:24;;;;;;;2.33;1.98;;;19.40;77.30;;;;;;5111348;27;20043;-65
2021/06/29 00:46:51;;;;;;;2.00;1.90;;;19.40;77.30;;;;;;5096521;27;20087;-62
2021/06/29 00:49:17;;;;;;;1.90;1.80;;;19.40;77.70;;;;;;5101703;27;20032;-65
2021/06/29 00:51:43;;;;;;;2.83;1.73;;;19.40;77.90;;;;;;5102323;27;20628;-65
2021/06/29 00:54:11;;;;;;;2.05;1.95;;;19.40;78.00;;;;;;5098064;27;20043;-65
2021/06/29 00:56:37;;;;;;;2.33;2.15;;;19.40;78.20;;;;;;5102660;27;20502;-65
2021/06/29 00:59:04;;;;;;;3.13;2.22;;;19.40;78.20;;;;;;5097361;27;20039;-65
2021/06/29 01:01:30;;;;;;;2.20;2.10;;;19.40;78.70;;;;;;5090946;27;20603;-65
2021/06/29 01:03:55;;;;;;;3.92;2.47;;;19.40;78.70;;;;;;5101413;27;20032;-66
2021/06/29 01:06:21;;;;;;;2.22;2.08;;;19.30;78.90;;;;;;5099998;27;20028;-65
2021/06/29 01:08:47;;;;;;;2.67;2.47;;;19.30;79.10;;;;;;5095914;27;20514;-65
2021/06/29 01:11:13;;;;;;;2.53;2.20;;;19.40;79.30;;;;;;5098303;27;20120;-65
2021/06/29 01:13:42;;;;;;;2.50;2.05;;;19.40;79.40;;;;;;5099253;27;20056;-65
2021/06/29 01:16:08;;;;;;;2.45;2.15;;;19.40;79.60;;;;;;5101128;27;20067;-65
2021/06/29 01:18:36;;;;;;;2.13;2.03;;;19.40;79.50;;;;;;5097302;27;20032;-65
2021/06/29 01:21:02;;;;;;;2.28;2.08;;;19.50;79.50;;;;;;5100248;27;20024;-65
2021/06/29 01:23:29;;;;;;;2.53;2.33;;;19.50;79.40;;;;;;5097276;27;20040;-65
2021/06/29 01:26:14;;;;;;;2.30;2.20;;;19.50;79.30;;;;;;5099646;27;20027;-65
2021/06/29 01:31:15;;;;;;;2.33;2.13;;;19.50;79.10;;;;;;5098699;27;20039;-65
2021/06/29 01:33:41;;;;;;;2.15;1.95;;;19.60;78.90;;;;;;5098026;27;20104;-65
2021/06/29 01:36:06;;;;;;;2.10;2.00;;;19.60;78.90;;;;;;5104591;27;20093;-65
2021/06/29 01:38:32;;;;;;;2.70;2.33;;;19.60;78.90;;;;;;5091249;27;20048;-65
2021/06/29 01:40:58;;;;;;;2.25;2.13;;;19.60;79.00;;;;;;5097663;27;20038;-66
2021/06/29 01:43:27;;;;;;;2.53;2.33;;;19.60;78.90;;;;;;5101163;27;20040;-66
2021/06/29 01:45:55;;;;;;;2.40;2.08;;;19.60;78.70;;;;;;5094687;27;20064;-65
2021/06/29 01:48:21;;;;;;;2.13;2.03;;;19.70;78.70;;;;;;5099350;27;20104;-65
2021/06/29 01:50:51;;;;;;;2.50;2.30;;;19.70;78.60;;;;;;5098628;27;20034;-64
2021/06/29 01:53:17;;;;;;;2.17;2.08;;;19.70;78.90;;;;;;5099916;27;20036;-64
2021/06/29 01:55:44;;;;;;;2.38;2.28;;;19.60;78.70;;;;;;5094719;27;20043;-66
2021/06/29 01:58:10;;;;;;;2.45;2.35;;;19.60;78.80;;;;;;5106865;27;20044;-65
2021/06/29 02:00:36;;;;;;;3.85;2.38;;;19.60;78.90;;;;;;5094216;27;20608;-65
2021/06/29 02:03:01;;;;;;;3.00;2.30;;;19.60;79.20;;;;;;5101402;27;20043;-64
2021/06/29 02:05:27;;;;;;;2.05;1.95;;;19.60;79.80;;;;;;5097250;27;20028;-66
2021/06/29 02:07:53;;;;;;;2.35;2.20;;;19.60;79.20;;;;;;5100706;27;20200;-64
2021/06/29 02:10:18;;;;;;;3.08;2.30;;;19.70;79.30;;;;;;5101891;27;20080;-66
2021/06/29 02:12:45;;;;;;;2.30;2.17;;;19.70;79.20;;;;;;5101689;27;20047;-66
2021/06/29 02:15:11;;;;;;;2.20;2.00;;;19.70;79.10;;;;;;5104974;27;20510;-66
2021/06/29 02:17:37;;;;;;;2.67;2.47;;;19.70;79.10;;;;;;5107767;27;20035;-65
2021/06/29 02:20:05;;;;;;;1.95;1.85;;;19.70;78.90;;;;;;5101916;27;20038;-65
2021/06/29 02:22:31;;;;;;;2.17;2.08;;;19.70;78.90;;;;;;5100145;27;20028;-64
2021/06/29 02:24:57;;;;;;;2.05;1.95;;;19.70;78.80;;;;;;5100306;27;20398;-65
2021/06/29 02:27:23;;;;;;;2.08;1.98;;;19.80;79.00;;;;;;5099498;27;20112;-64
2021/06/29 02:29:48;;;;;;;2.00;1.90;;;19.70;79.00;;;;;;5096259;27;20043;-66
2021/06/29 02:32:14;;;;;;;2.00;1.90;;;19.80;78.80;;;;;;5104119;27;20115;-65
2021/06/29 02:34:40;;;;;;;2.10;1.92;;;19.80;78.80;;;;;;5101906;27;20040;-65
2021/06/29 02:37:05;;;;;;;2.28;2.17;;;19.80;78.90;;;;;;5098460;27;20099;-63
2021/06/29 02:39:31;;;;;;;2.25;2.10;;;19.80;79.00;;;;;;5097788;27;20050;-63
2021/06/29 02:41:57;;;;;;;2.90;2.10;;;19.80;78.80;;;;;;5098903;27;20027;-62
2021/06/29 02:44:23;;;;;;;2.47;2.28;;;19.80;78.70;;;;;;5095154;27;20120;-63
2021/06/29 02:46:48;;;;;;;2.15;1.95;;;19.80;78.60;;;;;;5097602;27;20708;-63
2021/06/29 02:49:14;;;;;;;2.05;1.95;;;19.80;78.60;;;;;;5096580;27;20036;-63
2021/06/29 02:51:41;;;;;;;3.15;2.30;;;19.80;78.60;;;;;;5096010;27;20709;-63
2021/06/29 02:54:06;;;;;;;2.20;2.10;;;19.90;78.80;;;;;;5090566;27;20117;-63
2021/06/29 02:56:38;;;;;;;4.32;2.28;;;19.90;78.90;;;;;;5096722;27;20647;-63
2021/06/29 02:59:09;;;;;;;1.90;1.80;;;19.90;78.80;;;;;;5101574;27;20032;-62
2021/06/29 03:01:35;;;;;;;2.45;1.90;;;19.90;79.10;;;;;;5095161;27;20043;-63
2021/06/29 03:04:00;;;;;;;2.10;2.00;;;19.90;78.70;;;;;;5099491;27;20028;-62
2021/06/29 03:06:26;;;;;;;2.55;2.35;;;19.90;78.70;;;;;;5089938;27;20667;-63
2021/06/29 03:08:52;;;;;;;2.85;2.25;;;19.90;78.60;;;;;;5094325;28;20020;-63
2021/06/29 03:11:17;;;;;;;2.85;2.58;;;19.90;78.40;;;;;;5102324;27;20028;-62
2021/06/29 03:13:43;;;;;;;2.30;2.20;;;19.90;78.30;;;;;;5101974;27;20112;-63
2021/06/29 03:16:11;;;;;;;2.70;2.50;;;19.90;78.30;;;;;;5105988;27;20043;-63
2021/06/29 03:18:36;;;;;;;2.78;2.55;;;19.90;78.40;;;;;;5106256;27;20030;-63
2021/06/29 03:21:02;;;;;;;2.95;2.65;;;19.90;78.70;;;;;;5103683;27;20032;-63
2021/06/29 03:23:28;;;;;;;3.10;2.47;;;19.80;78.70;;;;;;5102616;27;20398;-65
2021/06/29 03:25:53;;;;;;;2.90;2.70;;;19.80;78.90;;;;;;5105667;27;20035;-65
2021/06/29 03:28:19;;;;;;;2.70;2.60;;;19.80;79.10;;;;;;5104994;27;20059;-65
2021/06/29 03:30:45;;;;;;;2.80;2.60;;;19.80;79.00;;;;;;5103349;27;20038;-65
2021/06/29 03:33:10;;;;;;;3.15;2.70;;;19.70;78.90;;;;;;5097433;27;20119;-65
2021/06/29 03:35:36;;;;;;;2.70;2.50;;;19.70;79.30;;;;;;5092711;27;20131;-65
2021/06/29 03:38:02;;;;;;;2.85;2.30;;;19.60;79.40;;;;;;5093746;27;20080;-65
2021/06/29 03:40:28;;;;;;;2.90;2.53;;;19.60;79.70;;;;;;5095037;27;20028;-64
2021/06/29 03:42:54;;;;;;;2.58;2.38;;;19.60;79.80;;;;;;5106334;27;20045;-65
2021/06/29 03:45:19;;;;;;;2.33;2.20;;;19.60;79.80;;;;;;5095045;27;20035;-65
2021/06/29 03:47:45;;;;;;;2.65;2.10;;;19.60;79.70;;;;;;5094795;27;20032;-65
2021/06/29 03:50:11;;;;;;;2.08;1.98;;;19.60;79.80;;;;;;5098741;27;20506;-65
2021/06/29 03:52:40;;;;;;;2.95;1.90;;;19.50;79.60;;;;;;5096893;27;21567;-64
2021/06/29 03:55:07;;;;;;;2.10;1.75;;;19.60;79.60;;;;;;5099309;27;20102;-65
2021/06/29 03:57:32;;;;;;;1.83;1.73;;;19.50;79.60;;;;;;5096491;27;20059;-64
2021/06/29 03:59:58;;;;;;;2.00;1.88;;;19.50;79.40;;;;;;5097694;27;20119;-64
2021/06/29 04:02:24;;;;;;;1.73;1.63;;;19.50;79.50;;;;;;5102700;27;20038;-65
2021/06/29 04:04:51;;;;;;;1.75;1.65;;;19.50;79.40;;;;;;5106137;27;20031;-65
2021/06/29 04:07:17;;;;;;;2.90;1.48;;;19.40;79.30;;;;;;5106981;27;20040;-65
2021/06/29 04:09:43;;;;;;;2.10;1.35;;;19.40;79.20;;;;;;5094257;27;20411;-65
2021/06/29 04:12:09;;;;;;;2.40;1.30;;;19.40;78.80;;;;;;5090764;27;20062;-65
2021/06/29 04:14:35;;;;;;;1.45;1.35;;;19.40;78.40;;;;;;5092707;27;20093;-65
2021/06/29 04:17:00;;;;;;;1.35;1.25;;;19.30;78.20;;;;;;5092707;27;20040;-65
2021/06/29 04:19:26;;;;;;;1.70;1.40;;;19.20;78.10;;;;;;5096452;27;20132;-64
2021/06/29 04:21:53;;;;;;;1.30;1.15;;;19.20;78.10;;;;;;5094810;27;20539;-64
2021/06/29 04:24:18;;;;;;;1.08;0.98;;;19.10;77.90;;;;;;5094212;27;20116;-65
2021/06/29 04:26:44;;;;;;;1.30;1.10;;;19.10;77.60;;;;;;5099271;27;20707;-66
2021/06/29 04:29:10;;;;;;;2.85;1.10;;;19.00;77.90;;;;;;5088879;27;20028;-65
2021/06/29 04:31:36;;;;;;;1.20;1.00;;;18.90;78.00;;;;;;5093503;27;20155;-65
2021/06/29 04:34:01;;;;;;;1.38;0.93;;;18.90;78.20;;;;;;5087173;27;20027;-65
2021/06/29 04:36:27;;;;;;;1.00;0.88;;;18.80;79.00;;;;;;5101019;27;20031;-65
2021/06/29 04:38:53;;;;;;;1.77;1.00;;;18.70;77.90;;;;;;5101316;27;20173;-64
2021/06/29 04:41:18;;;;;;;1.00;0.95;;;18.70;78.20;;;;;;5101937;27;20099;-65
2021/06/29 04:43:45;;;;;;;1.23;1.13;;;18.60;78.30;;;;;;5103592;27;20035;-65
2021/06/29 04:46:12;;;;;;;1.48;1.08;;;18.60;78.80;;;;;;5106444;27;20040;-65
2021/06/29 04:48:39;;;;;;;2.55;1.13;;;18.60;80.00;;;;;;5109656;27;20023;-65
2021/06/29 04:51:05;;;;;;;1.17;1.10;;;18.60;79.40;;;;;;5109420;27;20032;-65
2021/06/29 04:53:31;;;;;;;1.20;1.10;;;18.60;79.60;;;;;;5108512;27;20028;-64
2021/06/29 04:55:57;;;;;;;3.17;1.25;;;18.60;79.80;;;;;;5109490;27;20032;-65
2021/06/29 04:58:23;;;;;;;0.95;0.95;;;18.70;80.00;;;;;;5109885;27;20042;-66
2021/06/29 05:00:50;;;;;;;1.30;1.20;;;18.70;80.10;;;;;;5109561;27;20130;-66
2021/06/29 05:03:16;;;;;;;1.15;1.10;;;18.70;80.10;;;;;;5108046;27;20043;-66
2021/06/29 05:05:42;;;;;;;3.50;1.02;;;18.70;80.10;;;;;;5108442;27;20089;-65
2021/06/29 05:08:10;;;;;;;0.98;0.90;;;18.70;79.90;;;;;;5099106;27;20137;-64
2021/06/29 05:10:35;;;;;;;2.45;1.25;;;18.80;79.80;;;;;;5106636;27;20410;-65
2021/06/29 05:13:01;;;;;;;1.13;1.00;;;18.80;79.80;;;;;;5105259;27;20031;-65
2021/06/29 05:15:27;;;;;;;1.40;0.95;;;18.80;80.00;;;;;;5107317;27;20038;-65
2021/06/29 05:17:53;;;;;;;1.85;1.05;;;18.90;80.00;;;;;;5111045;27;20443;-65
2021/06/29 05:20:18;;;;;;;3.97;1.20;;;18.90;79.90;;;;;;5108422;27;20032;-65
2021/06/29 05:22:44;;;;;;;3.78;1.60;;;18.90;80.00;;;;;;5109251;27;20521;-65
2021/06/29 05:25:10;;;;;;;2.20;1.10;;;18.90;79.60;;;;;;5109189;27;20081;-65
2021/06/29 05:27:38;;;;;;;1.75;1.20;;;18.90;79.30;;;;;;5108838;27;20418;-65
2021/06/29 05:30:05;;;;;;;1.15;1.05;;;18.90;79.40;;;;;;5110257;27;20096;-66
2021/06/29 05:32:31;;;;;;;1.50;1.05;;;18.90;79.40;;;;;;5106813;27;20040;-65
2021/06/29 05:34:56;;;;;;;2.22;1.05;;;18.90;79.40;;;;;;5108560;27;20024;-65
2021/06/29 05:37:22;;;;;;;1.38;1.27;;;19.00;79.20;;;;;;5109702;27;20047;-64
2021/06/29 05:39:48;;;;;;;1.30;1.17;;;18.90;79.00;;;;;;5108931;27;20110;-65
2021/06/29 05:42:13;;;;;;;1.10;1.00;;;19.00;78.90;;;;;;5104010;27;20043;-66
2021/06/29 05:44:39;;;;;;;3.25;1.00;;;18.90;78.60;;;;;;5107053;27;20028;-66
2021/06/29 05:47:09;;;;;;;0.85;0.85;;;18.90;78.20;;;;;;5109308;27;20437;-65
2021/06/29 05:49:35;;;;;;;1.30;1.20;;;18.90;78.40;;;;;;5109453;27;20165;-66
2021/06/29 05:52:01;;;;;;;1.00;0.90;;;18.90;78.60;;;;;;5109208;27;20586;-65
2021/06/29 05:54:27;;;;;;;2.13;1.00;;;18.90;78.60;;;;;;5107683;27;20039;-65
2021/06/29 05:56:52;;;;;;;1.35;0.95;;;18.90;78.70;;;;;;5108191;27;20521;-65
2021/06/29 05:59:19;;;;;;;0.90;0.90;;;18.90;78.70;;;;;;5104586;27;20098;-63
2021/06/29 06:01:44;;;;;;;1.27;1.17;;;18.80;78.90;;;;;;5105232;27;20055;-66
2021/06/29 06:04:10;;;;;;;1.20;1.10;;;18.80;79.30;;;;;;5104595;27;20028;-65
2021/06/29 06:06:36;;;;;;;1.27;0.80;;;18.80;79.60;;;;;;5103506;27;20111;-64
2021/06/29 06:09:02;;;;;;;3.95;1.20;;;18.80;79.50;;;;;;5107906;27;20038;-64
2021/06/29 06:11:27;;;;;;;1.65;0.98;;;18.80;79.80;;;;;;5101021;27;20110;-65
2021/06/29 06:13:53;;;;;;;1.40;1.00;;;18.80;79.80;;;;;;5105592;27;20048;-65
2021/06/29 06:16:19;;;;;;;1.17;1.08;;;18.80;79.70;;;;;;5108390;27;20032;-65
2021/06/29 06:18:44;;;;;;;1.08;1.00;;;18.80;80.00;;;;;;5107701;27;20112;-65
2021/06/29 06:21:10;;;;;;;1.05;1.05;;;18.80;79.90;;;;;;5108653;27;20028;-65
2021/06/29 06:23:36;;;;;;;1.98;1.10;;;18.90;79.90;;;;;;5107793;27;20136;-65
2021/06/29 06:26:02;;;;;;;1.10;1.00;;;18.80;79.60;;;;;;5105727;27;20028;-65
2021/06/29 06:28:27;;;;;;;1.58;0.90;;;18.90;79.40;;;;;;5108323;27;20032;-64
2021/06/29 06:30:53;;;;;;;1.25;1.15;;;18.90;79.50;;;;;;5109708;27;20091;-65
2021/06/29 06:33:20;;;;;;;1.13;1.00;;;18.80;79.90;;;;;;5106910;27;20609;-65
2021/06/29 06:35:46;;;;;;;1.20;1.08;;;18.80;80.20;;;;;;5105568;27;20032;-65
2021/06/29 06:38:11;;;;;;;1.17;1.10;;;18.90;80.50;;;;;;5104781;27;20042;-65
2021/06/29 06:40:37;;;;;;;1.10;1.10;;;18.90;80.50;;;;;;5105764;27;20066;-65
2021/06/29 06:43:03;;;;;;;2.30;0.90;;;19.00;80.70;;;;;;5107485;27;20039;-65
2021/06/29 06:45:29;;;;;;;1.17;1.10;;;19.10;80.60;;;;;;5104873;27;20036;-65
2021/06/29 06:47:55;;;;;;;1.92;1.10;;;19.10;80.70;;;;;;5108508;27;20031;-65
2021/06/29 06:50:21;;;;;;;1.20;1.13;;;19.20;81.00;;;;;;5106447;27;20415;-65
2021/06/29 06:52:47;;;;;;;0.80;0.80;;;19.30;80.90;;;;;;5108198;27;20028;-65
2021/06/29 06:55:13;;;;;;;1.52;1.05;;;19.40;80.50;;;;;;5107322;27;20088;-65
2021/06/29 06:57:41;;;;;;;1.30;1.20;;;19.50;80.50;;;;;;5106809;27;20486;-65
2021/06/29 07:00:08;;;;;;;1.10;0.93;;;19.60;80.50;;;;;;5106258;27;20054;-65
2021/06/29 07:02:34;;;;;;;1.17;0.90;;;19.70;79.40;;;;;;5096396;27;20073;-65
2021/06/29 07:05:00;;;;;;;1.67;1.10;;;19.80;79.00;;;;;;5099024;27;20066;-65
2021/06/29 07:07:25;;;;;;;2.13;1.10;;;19.80;79.30;;;;;;5104814;27;20518;-65
2021/06/29 07:09:51;;;;;;;1.00;0.90;;;19.90;78.70;;;;;;5105827;27;20156;-65
2021/06/29 07:12:17;;;;;;;1.63;1.00;;;20.00;78.90;;;;;;5106271;27;20050;-65
2021/06/29 07:14:42;;;;;;;0.90;0.90;;;20.10;78.70;;;;;;5104858;27;20092;-65
2021/06/29 07:17:08;;;;;;;2.78;1.00;;;20.20;78.60;;;;;;5108496;27;20528;-66
2021/06/29 07:19:34;;;;;;;3.53;1.00;;;20.20;77.90;;;;;;5108399;27;20027;-66
2021/06/29 07:21:59;;;;;;;0.90;0.90;;;20.30;78.40;;;;;;5103237;27;20036;-66
2021/06/29 07:24:25;;;;;;;0.80;0.80;;;20.40;78.00;;;;;;5101958;27;20035;-65
2021/06/29 07:26:50;;;;;;;1.17;1.10;;;20.50;77.70;;;;;;5106766;27;20036;-65
2021/06/29 07:29:16;;;;;;;0.80;0.80;;;20.50;77.70;;;;;;5107204;27;20028;-66
2021/06/29 07:31:42;;;;;;;2.10;0.90;;;20.60;77.40;;;;;;5104375;27;20058;-66
2021/06/29 07:34:07;;;;;;;0.80;0.80;;;20.60;76.80;;;;;;5104577;27;20387;-65
2021/06/29 07:36:33;;;;;;;1.83;0.88;;;20.70;76.80;;;;;;5104791;27;20027;-65
2021/06/29 07:38:59;;;;;;;0.82;0.80;;;20.70;76.80;;;;;;5105894;27;20036;-65
2021/06/29 07:41:24;;;;;;;1.80;0.90;;;20.80;76.50;;;;;;5104685;27;20212;-66
2021/06/29 07:43:51;;;;;;;0.90;0.85;;;20.80;75.90;;;;;;5106196;27;20071;-66
2021/06/29 07:46:17;;;;;;;1.83;1.00;;;20.90;76.10;;;;;;5103166;27;20028;-65
2021/06/29 07:48:43;;;;;;;1.85;0.90;;;21.00;75.90;;;;;;5107011;27;20099;-66
2021/06/29 07:51:09;;;;;;;1.75;1.00;;;21.10;76.00;;;;;;5107072;27;20028;-65
2021/06/29 07:53:35;;;;;;;1.45;0.80;;;21.10;75.80;;;;;;5105288;27;20189;-65
2021/06/29 07:56:01;;;;;;;0.93;0.70;;;21.20;75.60;;;;;;5106226;27;20039;-65
2021/06/29 07:58:28;;;;;;;0.80;0.70;;;21.20;74.90;;;;;;5103808;27;20027;-66
2021/06/29 08:00:54;;;;;;;0.70;0.70;;;21.30;74.10;;;;;;5104899;27;20028;-66
2021/06/29 08:03:20;;;;;;;3.08;0.80;;;21.40;74.00;;;;;;5104944;27;20459;-65
2021/06/29 08:05:45;;;;;;;0.52;0.52;;;21.50;74.40;;;;;;5105536;27;20040;-66
2021/06/29 08:08:11;;;;;;;0.70;0.60;;;21.50;74.60;;;;;;5106611;27;20039;-65
2021/06/29 08:10:37;;;;;;;0.60;0.60;;;21.60;74.50;;;;;;5102285;27;20507;-66
2021/06/29 08:13:04;;;;;;;0.40;0.40;;;21.70;73.30;;;;;;5104340;27;20027;-66
2021/06/29 08:15:30;;;;;;;1.55;0.50;;;21.80;72.80;;;;;;5106057;27;20453;-65
2021/06/29 08:17:56;;;;;;;0.63;0.50;;;21.90;73.00;;;;;;5107914;27;20039;-66
2021/06/29 08:20:22;;;;;;;0.57;0.52;;;22.00;72.10;;;;;;5109415;27;20042;-64
2021/06/29 08:22:50;;;;;;;0.57;0.57;;;22.10;72.30;;;;;;5109746;27;20062;-63
2021/06/29 08:25:16;;;;;;;0.50;0.50;;;22.20;71.60;;;;;;5125502;27;20088;-64
2021/06/29 08:27:42;;;;;;;0.50;0.50;;;22.20;71.30;;;;;;5108249;27;20036;-64
2021/06/29 08:30:10;;;;;;;1.35;0.50;;;22.40;71.30;;;;;;5109536;27;20593;-64
2021/06/29 08:32:38;;;;;;;0.90;0.40;;;22.50;70.70;;;;;;5106407;27;20035;-64
2021/06/29 08:35:10;;;;;;;0.45;0.40;;;22.60;71.10;;;;;;5108615;27;20387;-64
2021/06/29 08:37:37;;;;;;;0.40;0.40;;;22.70;69.60;;;;;;5106700;27;20353;-64
2021/06/29 08:40:08;;;;;;;2.17;0.30;;;22.80;69.80;;;;;;5109957;27;20031;-64
2021/06/29 08:42:36;;;;;;;0.40;0.40;;;22.90;68.00;;;;;;5105275;27;20090;-64
2021/06/29 08:45:14;;;;;;;0.28;0.28;;;23.00;68.80;;;;;;5107868;27;20028;-64
2021/06/29 08:47:40;;;;;;;0.52;0.52;;;23.10;66.60;;;;;;5107946;27;20031;-64
2021/06/29 08:50:09;;;;;;;0.45;0.32;;;23.10;66.30;;;;;;5107384;27;20027;-64
2021/06/29 08:52:35;;;;;;;0.45;0.30;;;23.20;66.20;;;;;;5106414;27;20114;-64
2021/06/29 08:55:02;;;;;;;0.55;0.40;;;23.30;65.50;;;;;;5108087;27;20594;-63
2021/06/29 08:57:28;;;;;;;0.73;0.38;;;23.40;64.90;;;;;;5109693;27;20038;-64
2021/06/29 08:59:53;;;;;;;0.40;0.40;;;23.40;65.00;;;;;;5102294;27;20031;-64
2021/06/29 09:02:19;;;;;;;0.60;0.60;;;23.50;64.20;;;;;;5106910;27;20561;-64
2021/06/29 09:04:50;;;;;;;1.17;0.40;;;23.60;63.70;;;;;;5107544;27;20089;-64
2021/06/29 09:07:16;;;;;;;0.40;0.40;;;23.70;63.70;;;;;;5101003;28;20027;-64
2021/06/29 09:09:47;;;;;;;0.60;0.47;;;23.80;63.40;;;;;;5108001;27;20045;-64
2021/06/29 09:12:13;;;;;;;1.13;0.60;;;23.80;63.30;;;;;;5105708;27;20559;-65
2021/06/29 09:14:39;;;;;;;1.45;0.40;;;23.90;63.90;;;;;;5106548;27;20028;-64
2021/06/29 09:17:19;;;;;;;0.60;0.40;;;24.00;63.30;;;;;;5108561;27;20035;-64
2021/06/29 09:19:45;;;;;;;0.63;0.40;;;24.10;62.00;;;;;;5106368;27;20032;-64
2021/06/29 09:22:32;;;;;;;0.77;0.40;;;24.20;62.40;;;;;;5109288;27;20031;-64
2021/06/29 09:24:59;;;;;;;0.80;0.50;;;24.30;60.70;;;;;;5109469;27;20034;-64
2021/06/29 09:27:45;;;;;;;0.55;0.45;;;24.40;62.50;;;;;;5110904;27;20039;-64
2021/06/29 09:30:30;;;;;;;0.40;0.40;;;24.40;61.20;;;;;;5109785;27;20055;-64
2021/06/29 09:33:02;;;;;;;0.60;0.50;;;24.60;61.30;;;;;;5107182;27;20031;-64
2021/06/29 09:35:28;;;;;;;1.10;0.68;;;24.60;62.00;;;;;;5106846;27;20032;-63
2021/06/29 09:37:55;;;;;;;2.22;1.30;;;24.80;61.90;;;;;;5109173;27;20043;-64
2021/06/29 09:40:21;;;;;;;0.73;0.60;;;24.80;61.90;;;;;;5108742;27;20028;-64
2021/06/29 09:42:47;;;;;;;0.70;0.50;;;24.90;61.60;;;;;;5106767;27;20568;-64
2021/06/29 09:45:40;;;;;;;0.63;0.60;;;25.00;61.00;;;;;;5106707;27;20036;-64
2021/06/29 09:48:09;;;;;;;1.30;0.82;;;25.10;59.90;;;;;;5101325;27;20118;-65
2021/06/29 09:50:47;;;;;;;1.50;0.75;;;25.20;61.30;;;;;;5107443;27;20122;-64
2021/06/29 09:53:14;;;;;;;0.65;0.60;;;25.20;60.60;;;;;;5106837;27;20449;-64
2021/06/29 09:55:42;;;;;;;0.55;0.50;;;25.30;60.60;;;;;;5109026;27;20058;-64
2021/06/29 09:58:09;;;;;;;1.55;0.65;;;25.40;60.80;;;;;;5109429;27;20035;-64
2021/06/29 10:01:02;;;;;;;1.40;0.65;;;25.50;59.90;;;;;;5107099;27;20036;-64
2021/06/29 10:03:34;;;;;;;0.55;0.50;;;25.50;59.10;;;;;;5102546;27;20144;-64
2021/06/29 10:06:08;;;;;;;0.50;0.50;;;25.50;59.00;;;;;;5104824;27;20055;-64
2021/06/29 10:08:35;;;;;;;2.75;0.40;;;25.60;58.60;;;;;;5109783;27;20035;-64
2021/06/29 10:11:05;;;;;;;0.43;0.40;;;25.70;58.20;;;;;;5104758;27;20064;-64
2021/06/29 10:13:36;;;;;;;0.30;0.30;;;25.80;57.60;;;;;;5107683;27;20059;-64
2021/06/29 10:16:03;;;;;;;0.50;0.50;;;25.80;58.00;;;;;;5107187;27;20028;-64
2021/06/29 10:18:31;;;;;;;0.70;0.55;;;25.90;58.40;;;;;;5108071;27;20039;-64
2021/06/29 10:21:00;;;;;;;0.70;0.50;;;26.00;58.50;;;;;;5118129;27;20067;-64
2021/06/29 10:23:26;;;;;;;0.70;0.63;;;26.00;57.70;;;;;;5107747;27;20027;-64
2021/06/29 10:25:53;;;;;;;0.80;0.38;;;26.10;58.20;;;;;;5109311;27;20110;-64
2021/06/29 10:28:19;;;;;;;1.48;0.30;;;26.20;57.80;;;;;;5108761;27;20043;-64
2021/06/29 10:30:45;;;;;;;0.40;0.40;;;26.30;58.20;;;;;;5108456;27;20262;-64
2021/06/29 10:33:12;;;;;;;0.30;0.30;;;26.40;57.00;;;;;;5108265;27;20100;-64
2021/06/29 10:35:38;;;;;;;0.63;0.50;;;26.50;56.00;;;;;;5107323;27;20035;-64
2021/06/29 10:38:04;;;;;;;0.40;0.40;;;26.60;56.00;;;;;;5106446;27;20031;-64
2021/06/29 10:40:31;;;;;;;0.50;0.50;;;26.60;55.90;;;;;;5107366;27;20446;-64
2021/06/29 10:43:01;;;;;;;0.95;0.40;;;26.70;56.20;;;;;;5104693;27;20117;-64
2021/06/29 10:45:38;;;;;;;0.50;0.40;;;26.70;55.60;;;;;;5105127;27;20103;-65
2021/06/29 10:48:27;;;;;;;0.47;0.47;;;26.80;55.60;;;;;;5105730;28;20063;-64
2021/06/29 10:50:58;;;;;;;0.93;0.40;;;26.90;55.70;;;;;;5104567;27;20558;-65
2021/06/29 10:53:45;;;;;;;0.55;0.55;;;27.00;55.70;;;;;;5105342;27;20350;-65
2021/06/29 10:56:17;;;;;;;0.40;0.38;;;27.00;54.70;;;;;;5107312;27;20573;-65
2021/06/29 10:58:48;;;;;;;0.32;0.32;;;27.10;54.50;;;;;;5106232;27;20043;-65
2021/06/29 11:01:32;;;;;;;0.68;0.40;;;27.10;54.60;;;;;;5107722;27;20035;-65
2021/06/29 11:04:00;;;;;;;0.35;0.32;;;27.20;54.50;;;;;;5096914;27;20623;-65
2021/06/29 11:06:47;;;;;;;2.92;0.40;;;27.10;55.00;;;;;;5106017;27;20032;-65
2021/06/29 11:09:20;;;;;;;0.40;0.40;;;27.20;54.50;;;;;;5106693;27;20571;-65
2021/06/29 11:12:29;;;;;;;0.57;0.50;;;27.20;54.50;;;;;;5102940;27;20043;-65
2021/06/29 11:14:57;;;;;;;0.45;0.45;;;27.30;54.40;;;;;;5105059;27;20024;-65
2021/06/29 11:17:58;;;;;;;0.40;0.40;;;27.30;55.00;;;;;;5105654;27;20498;-65
2021/06/29 11:20:26;;;;;;;0.52;0.50;;;27.30;53.10;;;;;;5106736;27;20171;-65
2021/06/29 11:22:58;;;;;;;0.40;0.40;;;27.30;53.60;;;;;;5105895;27;20036;-65
2021/06/29 11:25:46;;;;;;;0.40;0.40;;;27.30;53.50;;;;;;5107965;27;20525;-65
2021/06/29 11:28:27;;;;;;;0.43;0.43;;;27.30;52.70;;;;;;5107830;27;20089;-64
2021/06/29 11:31:01;;;;;;;0.50;0.40;;;27.30;53.20;;;;;;5107625;27;20054;-65
2021/06/29 11:33:45;;;;;;;;;;;27.20;54.50;;;;;;5105780;27;20032;-65
2021/06/29 11:36:23;;;;;;;0.52;0.40;;;27.30;55.00;;;;;;5103628;27;19920;-65
2021/06/29 11:38:54;;;;;;;0.98;0.65;;;27.30;54.20;;;;;;5105012;27;20071;-64
2021/06/29 11:41:41;;;;;;;0.60;0.60;;;27.30;54.60;;;;;;5103204;27;20039;-65
2021/06/29 11:44:06;;;;;;;0.80;0.50;;;27.30;53.40;;;;;;5105456;27;20044;-65
2021/06/29 11:46:50;;;;;;;0.70;0.50;;;27.30;54.50;;;;;;5103653;27;20088;-65
2021/06/29 11:49:25;;;;;;;0.45;0.45;;;27.30;53.80;;;;;;5105170;27;20399;-65
2021/06/29 11:51:53;;;;;;;0.57;0.57;;;27.30;54.20;;;;;;5105063;27;20040;-65
2021/06/29 11:54:32;;;;;;;0.60;0.60;;;27.40;53.80;;;;;;5103693;27;20502;-65
2021/06/29 11:57:00;;;;;;;0.57;0.40;;;27.40;52.90;;;;;;5119967;27;20530;-65
2021/06/29 11:59:30;;;;;;;0.50;0.50;;;27.40;54.00;;;;;;5105817;27;20039;-65
2021/06/29 12:02:05;;;;;;;2.40;0.60;;;27.40;53.80;;;;;;5105257;27;20044;-65
2021/06/29 12:04:33;;;;;;;0.70;0.60;;;27.40;53.60;;;;;;5085184;27;20048;-64
2021/06/29 12:07:06;;;;;;;0.75;0.70;;;27.40;53.70;;;;;;5085892;27;20032;-64
2021/06/29 12:09:34;;;;;;;0.85;0.55;;;27.40;53.70;;;;;;5086180;28;20564;-65
2021/06/29 12:12:19;;;;;;;0.60;0.60;;;27.40;54.00;;;;;;5085709;27;20527;-64
2021/06/29 12:14:45;;;;;;;0.50;0.47;;;27.40;53.80;;;;;;5084482;27;20435;-65
2021/06/29 12:17:11;;;;;;;0.88;0.70;;;27.40;54.80;;;;;;5079989;28;20087;-64
2021/06/29 12:19:39;;;;;;;1.20;0.90;;;27.40;53.90;;;;;;5086786;27;20544;-65
2021/06/29 12:22:05;;;;;;;0.80;0.80;;;27.30;53.50;;;;;;5086409;28;20031;-65
2021/06/29 12:24:31;;;;;;;1.95;0.95;;;27.30;53.50;;;;;;5085383;27;20036;-65
2021/06/29 12:26:56;;;;;;;0.90;0.90;;;27.20;54.00;;;;;;5084931;27;20032;-65
2021/06/29 12:29:36;;;;;;;21.25;1.13;;;27.10;54.50;;;;;;5085351;27;20024;-65
2021/06/29 12:32:15;;;;;;;0.88;0.80;;;27.00;54.60;;;;;;5084509;28;20025;-65
2021/06/29 12:34:41;;;;;;;2.03;1.05;;;26.90;55.20;;;;;;5084514;27;20499;-65
2021/06/29 12:37:07;;;;;;;2.17;1.20;;;26.80;55.40;;;;;;5083281;28;20032;-65
2021/06/29 12:39:32;;;;;;;0.88;0.80;;;26.70;55.20;;;;;;5083006;27;20028;-65
2021/06/29 12:41:58;;;;;;;3.13;0.73;;;26.70;55.70;;;;;;5092816;27;20089;-65
2021/06/29 12:44:26;;;;;;;0.98;0.85;;;26.50;55.20;;;;;;5084896;27;20024;-65
2021/06/29 12:46:52;;;;;;;0.73;0.73;;;26.40;55.80;;;;;;5082645;27;20039;-65
2021/06/29 12:49:24;;;;;;;0.90;0.90;;;26.30;55.70;;;;;;5086532;28;20032;-65
2021/06/29 12:51:56;;;;;;;1.70;1.20;;;26.20;55.90;;;;;;5084978;27;20109;-65
2021/06/29 12:54:24;;;;;;;1.20;0.90;;;26.10;56.30;;;;;;5080743;27;20024;-65